sensor_id;sensor_type;location;lat;lon;timestamp;pressure;altitude;pressure_sealevel;temperature;humidity
35435;BME280;21556;55.782;37.528;2023-01-24T00:01:23;101971.53;;;0.35;100.00
35435;BME280;21556;55.782;37.528;2023-01-24T00:03:49;101969.47;;;0.50;100.00
35435;BME280;21556;55.782;37.528;2023-01-24T00:06:15;101973.72;;;0.49;100.00
35435;BME280;21556;55.782;37.528;2023-01-24T00:08:41;101971.66;;;0.36;100.00
35435;BME280;21556;55.782;37.528;2023-01-24T00:11:09;101972.44;;;0.35;100.00
35435;BME280;21556;55.782;37.528;2023-01-24T00:13:36;101978.75;;;0.47;100.00
35435;BME280;21556;55.782;37.528;2023-01-24T00:18:35;101972.97;;;0.22;100.00
35435;BME280;21556;55.782;37.528;2023-01-24T00:21:10;101968.19;;;0.36;100.00
35435;BME280;21556;55.782;37.528;2023-01-24T00:23:42;101966.44;;;0.17;100.00
35435;BME280;21556;55.782;37.528;2023-01-24T00:26:09;101963.06;;;0.27;100.00
35435;BME280;21556;55.782;37.528;2023-01-24T00:28:35;101962.13;;;0.54;100.00
35435;BME280;21556;55.782;37.528;2023-01-24T00:31:02;101968.56;;;0.21;100.00
35435;BME280;21556;55.782;37.528;2023-01-24T00:33:28;101957.16;;;0.47;100.00
35435;BME280;21556;55.782;37.528;2023-01-24T00:35:54;101954.75;;;0.67;100.00
35435;BME280;21556;55.782;37.528;2023-01-24T00:38:20;101954.84;;;0.59;100.00
35435;BME280;21556;55.782;37.528;2023-01-24T00:40:47;101955.72;;;0.59;100.00
35435;BME280;21556;55.782;37.528;2023-01-24T00:43:13;101950.38;;;0.66;100.00
35435;BME280;21556;55.782;37.528;2023-01-24T00:45:39;101958.44;;;0.42;100.00
35435;BME280;21556;55.782;37.528;2023-01-24T00:48:07;101956.41;;;0.48;100.00
35435;BME280;21556;55.782;37.528;2023-01-24T00:50:33;101958.81;;;0.55;100.00
35435;BME280;21556;55.782;37.528;2023-01-24T00:53:01;101951.06;;;0.74;100.00
35435;BME280;21556;55.782;37.528;2023-01-24T00:55:28;101945.31;;;0.49;100.00
35435;BME280;21556;55.782;37.528;2023-01-24T00:57:55;101942.47;;;0.18;100.00
35435;BME280;21556;55.782;37.528;2023-01-24T01:00:21;101936.31;;;0.54;100.00
35435;BME280;21556;55.782;37.528;2023-01-24T01:02:50;101938.97;;;0.45;100.00
35435;BME280;21556;55.782;37.528;2023-01-24T01:05:17;101939.38;;;0.50;100.00
35435;BME280;21556;55.782;37.528;2023-01-24T01:07:43;101935.84;;;0.58;100.00
35435;BME280;21556;55.782;37.528;2023-01-24T01:10:09;101927.59;;;0.62;100.00
35435;BME280;21556;55.782;37.528;2023-01-24T01:12:36;101925.31;;;0.65;100.00
35435;BME280;21556;55.782;37.528;2023-01-24T01:15:03;101922.78;;;0.57;100.00
35435;BME280;21556;55.782;37.528;2023-01-24T01:17:29;101923.53;;;0.37;100.00
35435;BME280;21556;55.782;37.528;2023-01-24T01:19:55;101920.66;;;0.71;100.00
35435;BME280;21556;55.782;37.528;2023-01-24T01:22:22;101918.28;;;0.64;100.00
35435;BME280;21556;55.782;37.528;2023-01-24T01:24:49;101917.97;;;0.51;100.00
35435;BME280;21556;55.782;37.528;2023-01-24T01:27:15;101910.34;;;0.71;100.00
35435;BME280;21556;55.782;37.528;2023-01-24T01:29:41;101917.56;;;0.65;100.00
35435;BME280;21556;55.782;37.528;2023-01-24T01:32:07;101922.91;;;0.77;100.00
35435;BME280;21556;55.782;37.528;2023-01-24T01:34:33;101915.72;;;0.45;100.00
35435;BME280;21556;55.782;37.528;2023-01-24T01:36:58;101919.56;;;0.59;100.00
35435;BME280;21556;55.782;37.528;2023-01-24T01:39:25;101905.78;;;0.69;100.00
35435;BME280;21556;55.782;37.528;2023-01-24T01:41:50;101907.25;;;0.76;100.00
35435;BME280;21556;55.782;37.528;2023-01-24T01:44:24;101910.28;;;0.80;100.00
35435;BME280;21556;55.782;37.528;2023-01-24T01:47:18;101906.84;;;0.90;100.00
35435;BME280;21556;55.782;37.528;2023-01-24T01:49:49;101905.38;;;0.83;100.00
35435;BME280;21556;55.782;37.528;2023-01-24T01:52:17;101911.09;;;0.89;100.00
35435;BME280;21556;55.782;37.528;2023-01-24T01:54:47;101910.72;;;0.66;100.00
35435;BME280;21556;55.782;37.528;2023-01-24T01:57:20;101915.44;;;0.61;100.00
35435;BME280;21556;55.782;37.528;2023-01-24T01:59:51;101921.22;;;0.40;100.00
35435;BME280;21556;55.782;37.528;2023-01-24T02:02:20;101917.75;;;0.58;100.00
35435;BME280;21556;55.782;37.528;2023-01-24T02:04:53;101919.63;;;0.51;100.00
35435;BME280;21556;55.782;37.528;2023-01-24T02:07:30;101907.69;;;0.80;100.00
35435;BME280;21556;55.782;37.528;2023-01-24T02:09:58;101916.56;;;0.74;100.00
35435;BME280;21556;55.782;37.528;2023-01-24T02:12:28;101915.22;;;0.68;100.00
35435;BME280;21556;55.782;37.528;2023-01-24T02:15:05;101916.97;;;0.59;100.00
35435;BME280;21556;55.782;37.528;2023-01-24T02:17:50;101910.47;;;0.54;100.00
35435;BME280;21556;55.782;37.528;2023-01-24T02:20:39;101913.75;;;0.43;100.00
35435;BME280;21556;55.782;37.528;2023-01-24T02:23:25;101914.00;;;0.55;100.00
35435;BME280;21556;55.782;37.528;2023-01-24T02:26:21;101917.56;;;0.65;100.00
35435;BME280;21556;55.782;37.528;2023-01-24T02:29:09;101915.38;;;0.89;100.00
35435;BME280;21556;55.782;37.528;2023-01-24T02:31:55;101915.22;;;0.68;100.00
35435;BME280;21556;55.782;37.528;2023-01-24T02:34:23;101922.97;;;0.68;100.00
35435;BME280;21556;55.782;37.528;2023-01-24T02:36:58;101907.06;;;0.45;100.00
35435;BME280;21556;55.782;37.528;2023-01-24T02:39:29;101898.97;;;0.69;100.00
35435;BME280;21556;55.782;37.528;2023-01-24T02:42:00;101904.97;;;0.79;100.00
35435;BME280;21556;55.782;37.528;2023-01-24T02:47:31;101905.59;;;0.57;100.00
35435;BME280;21556;55.782;37.528;2023-01-24T02:50:00;101904.88;;;0.50;100.00
35435;BME280;21556;55.782;37.528;2023-01-24T02:52:29;101903.22;;;0.50;100.00
35435;BME280;21556;55.782;37.528;2023-01-24T02:55:14;101893.78;;;0.32;100.00
35435;BME280;21556;55.782;37.528;2023-01-24T02:57:40;101893.50;;;0.29;100.00
35435;BME280;21556;55.782;37.528;2023-01-24T03:00:24;101890.75;;;0.55;100.00
35435;BME280;21556;55.782;37.528;2023-01-24T03:02:50;101883.03;;;0.65;100.00
35435;BME280;21556;55.782;37.528;2023-01-24T03:05:16;101884.59;;;0.44;100.00
35435;BME280;21556;55.782;37.528;2023-01-24T03:07:42;101879.91;;;0.78;100.00
35435;BME280;21556;55.782;37.528;2023-01-24T03:10:14;101869.50;;;0.67;100.00
35435;BME280;21556;55.782;37.528;2023-01-24T03:12:44;101870.91;;;0.26;100.00
35435;BME280;21556;55.782;37.528;2023-01-24T03:15:28;101866.09;;;0.58;100.00
35435;BME280;21556;55.782;37.528;2023-01-24T03:18:14;101855.88;;;0.79;100.00
35435;BME280;21556;55.782;37.528;2023-01-24T03:20:59;101855.47;;;0.74;100.00
35435;BME280;21556;55.782;37.528;2023-01-24T03:23:43;101853.47;;;0.90;100.00
35435;BME280;21556;55.782;37.528;2023-01-24T03:26:28;101862.38;;;0.65;100.00
35435;BME280;21556;55.782;37.528;2023-01-24T03:29:13;101859.88;;;0.56;100.00
35435;BME280;21556;55.782;37.528;2023-01-24T03:31:58;101863.56;;;0.68;100.00
35435;BME280;21556;55.782;37.528;2023-01-24T03:34:42;101857.22;;;0.46;100.00
35435;BME280;21556;55.782;37.528;2023-01-24T03:37:16;101856.38;;;0.56;100.00
35435;BME280;21556;55.782;37.528;2023-01-24T03:39:42;101851.34;;;0.57;100.00
35435;BME280;21556;55.782;37.528;2023-01-24T03:42:25;101848.59;;;0.75;100.00
35435;BME280;21556;55.782;37.528;2023-01-24T03:44:54;101850.69;;;0.79;100.00
35435;BME280;21556;55.782;37.528;2023-01-24T03:47:20;101854.13;;;0.69;100.00
35435;BME280;21556;55.782;37.528;2023-01-24T03:49:46;101850.38;;;0.65;100.00
35435;BME280;21556;55.782;37.528;2023-01-24T03:52:30;101843.94;;;0.70;100.00
35435;BME280;21556;55.782;37.528;2023-01-24T03:55:01;101846.38;;;0.69;100.00
35435;BME280;21556;55.782;37.528;2023-01-24T03:57:29;101849.22;;;0.72;100.00
35435;BME280;21556;55.782;37.528;2023-01-24T04:00:00;101841.34;;;0.70;100.00
35435;BME280;21556;55.782;37.528;2023-01-24T04:02:31;101847.06;;;0.58;100.00
35435;BME280;21556;55.782;37.528;2023-01-24T04:04:57;101852.31;;;0.68;100.00
35435;BME280;21556;55.782;37.528;2023-01-24T04:07:38;101835.03;;;0.29;100.00
35435;BME280;21556;55.782;37.528;2023-01-24T04:10:06;101835.03;;;0.29;100.00
35435;BME280;21556;55.782;37.528;2023-01-24T04:12:42;101840.81;;;0.27;100.00
35435;BME280;21556;55.782;37.528;2023-01-24T04:15:15;101836.63;;;0.56;100.00
35435;BME280;21556;55.782;37.528;2023-01-24T04:17:43;101845.50;;;0.31;100.00
35435;BME280;21556;55.782;37.528;2023-01-24T04:20:12;101835.28;;;0.32;100.00
35435;BME280;21556;55.782;37.528;2023-01-24T04:22:39;101839.97;;;0.55;100.00
35435;BME280;21556;55.782;37.528;2023-01-24T04:25:06;101839.00;;;0.44;100.00
35435;BME280;21556;55.782;37.528;2023-01-24T04:27:35;101840.25;;;0.39;100.00
35435;BME280;21556;55.782;37.528;2023-01-24T04:30:07;101832.72;;;0.51;100.00
35435;BME280;21556;55.782;37.528;2023-01-24T04:32:35;101838.22;;;0.45;100.00
35435;BME280;21556;55.782;37.528;2023-01-24T04:35:09;101842.13;;;0.69;100.00
35435;BME280;21556;55.782;37.528;2023-01-24T04:37:49;101835.69;;;0.75;100.00
35435;BME280;21556;55.782;37.528;2023-01-24T04:40:24;101833.47;;;0.50;100.00
35435;BME280;21556;55.782;37.528;2023-01-24T04:42:51;101839.41;;;0.68;100.00
35435;BME280;21556;55.782;37.528;2023-01-24T04:45:17;101835.78;;;0.66;100.00
35435;BME280;21556;55.782;37.528;2023-01-24T04:47:43;101833.44;;;0.69;100.00
35435;BME280;21556;55.782;37.528;2023-01-24T04:50:09;101840.09;;;0.57;100.00
35435;BME280;21556;55.782;37.528;2023-01-24T04:52:36;101837.50;;;0.76;100.00
35435;BME280;21556;55.782;37.528;2023-01-24T04:55:07;101841.41;;;0.81;100.00
35435;BME280;21556;55.782;37.528;2023-01-24T04:57:33;101833.34;;;0.48;100.00
35435;BME280;21556;55.782;37.528;2023-01-24T05:00:00;101826.44;;;0.39;100.00
35435;BME280;21556;55.782;37.528;2023-01-24T05:02:30;101829.72;;;0.46;100.00
35435;BME280;21556;55.782;37.528;2023-01-24T05:04:59;101826.72;;;0.42;100.00
35435;BME280;21556;55.782;37.528;2023-01-24T05:07:27;101834.31;;;0.59;100.00
35435;BME280;21556;55.782;37.528;2023-01-24T05:10:02;101829.59;;;0.45;100.00
35435;BME280;21556;55.782;37.528;2023-01-24T05:12:28;101826.63;;;0.51;100.00
35435;BME280;21556;55.782;37.528;2023-01-24T05:14:58;101824.41;;;0.45;100.00
35435;BME280;21556;55.782;37.528;2023-01-24T05:17:24;101826.22;;;0.46;100.00
35435;BME280;21556;55.782;37.528;2023-01-24T05:19:53;101811.44;;;0.16;100.00
35435;BME280;21556;55.782;37.528;2023-01-24T05:22:19;101816.31;;;0.32;100.00
35435;BME280;21556;55.782;37.528;2023-01-24T05:24:46;101822.63;;;0.44;100.00
35435;BME280;21556;55.782;37.528;2023-01-24T05:27:11;101825.53;;;0.38;100.00
35435;BME280;21556;55.782;37.528;2023-01-24T05:29:42;101818.63;;;0.47;100.00
35435;BME280;21556;55.782;37.528;2023-01-24T05:32:08;101816.44;;;0.52;100.00
35435;BME280;21556;55.782;37.528;2023-01-24T05:34:35;101820.53;;;0.69;100.00
35435;BME280;21556;55.782;37.528;2023-01-24T05:37:04;101819.84;;;0.61;100.00
35435;BME280;21556;55.782;37.528;2023-01-24T05:39:32;101819.38;;;0.65;100.00
35435;BME280;21556;55.782;37.528;2023-01-24T05:41:58;101825.06;;;0.71;100.00
35435;BME280;21556;55.782;37.528;2023-01-24T05:44:32;101813.94;;;0.62;100.00
35435;BME280;21556;55.782;37.528;2023-01-24T05:47:00;101818.53;;;0.56;100.00
35435;BME280;21556;55.782;37.528;2023-01-24T05:49:34;101809.81;;;0.45;100.00
35435;BME280;21556;55.782;37.528;2023-01-24T05:52:00;101808.50;;;0.59;100.00
35435;BME280;21556;55.782;37.528;2023-01-24T05:54:58;101811.22;;;0.23;100.00
35435;BME280;21556;55.782;37.528;2023-01-24T05:57:48;101803.28;;;0.30;100.00
35435;BME280;21556;55.782;37.528;2023-01-24T06:00:14;101804.66;;;0.45;100.00
35435;BME280;21556;55.782;37.528;2023-01-24T06:02:40;101801.13;;;0.16;100.00
35435;BME280;21556;55.782;37.528;2023-01-24T06:05:08;101797.91;;;0.37;100.00
35435;BME280;21556;55.782;37.528;2023-01-24T06:07:34;101801.19;;;0.45;100.00
35435;BME280;21556;55.782;37.528;2023-01-24T06:09:59;101799.63;;;0.47;100.00
35435;BME280;21556;55.782;37.528;2023-01-24T06:12:26;101800.78;;;0.40;100.00
35435;BME280;21556;55.782;37.528;2023-01-24T06:14:52;101799.41;;;0.54;100.00
35435;BME280;21556;55.782;37.528;2023-01-24T06:17:18;101795.94;;;0.35;100.00
35435;BME280;21556;55.782;37.528;2023-01-24T06:19:44;101803.69;;;0.16;100.00
35435;BME280;21556;55.782;37.528;2023-01-24T06:22:25;101798.72;;;0.28;100.00
35435;BME280;21556;55.782;37.528;2023-01-24T06:24:56;101799.59;;;0.37;100.00
35435;BME280;21556;55.782;37.528;2023-01-24T06:27:29;101800.84;;;0.61;100.00
35435;BME280;21556;55.782;37.528;2023-01-24T06:29:56;101799.00;;;0.50;100.00
35435;BME280;21556;55.782;37.528;2023-01-24T06:37:48;101790.34;;;0.49;100.00
35435;BME280;21556;55.782;37.528;2023-01-24T06:40:17;101786.19;;;0.41;100.00
35435;BME280;21556;55.782;37.528;2023-01-24T06:42:44;101792.09;;;0.59;100.00
35435;BME280;21556;55.782;37.528;2023-01-24T06:45:17;101797.09;;;0.57;100.00
35435;BME280;21556;55.782;37.528;2023-01-24T06:47:43;101794.06;;;0.71;100.00
35435;BME280;21556;55.782;37.528;2023-01-24T06:50:19;101791.25;;;0.79;100.00
35435;BME280;21556;55.782;37.528;2023-01-24T06:52:46;101787.16;;;0.81;100.00
35435;BME280;21556;55.782;37.528;2023-01-24T06:55:12;101788.38;;;0.94;100.00
35435;BME280;21556;55.782;37.528;2023-01-24T06:57:38;101796.03;;;1.03;100.00
35435;BME280;21556;55.782;37.528;2023-01-24T07:00:06;101790.97;;;0.65;100.00
35435;BME280;21556;55.782;37.528;2023-01-24T07:02:32;101804.53;;;0.44;100.00
35435;BME280;21556;55.782;37.528;2023-01-24T07:04:58;101792.63;;;0.65;100.00
35435;BME280;21556;55.782;37.528;2023-01-24T07:07:23;101795.41;;;0.77;100.00
35435;BME280;21556;55.782;37.528;2023-01-24T07:09:49;101795.31;;;0.85;100.00
35435;BME280;21556;55.782;37.528;2023-01-24T07:12:15;101793.22;;;0.52;100.00
35435;BME280;21556;55.782;37.528;2023-01-24T07:14:41;101802.09;;;0.75;100.00
35435;BME280;21556;55.782;37.528;2023-01-24T07:17:08;101809.94;;;0.66;100.00
35435;BME280;21556;55.782;37.528;2023-01-24T07:19:34;101800.28;;;0.44;100.00
35435;BME280;21556;55.782;37.528;2023-01-24T07:22:00;101800.03;;;0.70;100.00
35435;BME280;21556;55.782;37.528;2023-01-24T07:24:28;101809.78;;;0.64;100.00
35435;BME280;21556;55.782;37.528;2023-01-24T07:26:55;101802.00;;;0.83;100.00
35435;BME280;21556;55.782;37.528;2023-01-24T07:29:22;101799.06;;;0.60;100.00
35435;BME280;21556;55.782;37.528;2023-01-24T07:31:48;101797.53;;;0.62;100.00
35435;BME280;21556;55.782;37.528;2023-01-24T07:34:16;101805.19;;;0.70;100.00
35435;BME280;21556;55.782;37.528;2023-01-24T07:36:43;101805.81;;;0.68;100.00
35435;BME280;21556;55.782;37.528;2023-01-24T07:39:09;101806.25;;;0.54;100.00
35435;BME280;21556;55.782;37.528;2023-01-24T07:41:36;101799.31;;;0.15;100.00
35435;BME280;21556;55.782;37.528;2023-01-24T07:44:02;101795.84;;;0.62;100.00
35435;BME280;21556;55.782;37.528;2023-01-24T07:46:31;101796.72;;;0.82;100.00
35435;BME280;21556;55.782;37.528;2023-01-24T07:48:58;101802.69;;;0.43;100.00
35435;BME280;21556;55.782;37.528;2023-01-24T07:51:24;101797.56;;;0.72;100.00
35435;BME280;21556;55.782;37.528;2023-01-24T07:53:51;101798.38;;;0.81;100.00
35435;BME280;21556;55.782;37.528;2023-01-24T07:56:17;101803.69;;;0.83;100.00
35435;BME280;21556;55.782;37.528;2023-01-24T07:58:43;101792.22;;;0.60;100.00
35435;BME280;21556;55.782;37.528;2023-01-24T08:01:10;101802.78;;;0.82;100.00
35435;BME280;21556;55.782;37.528;2023-01-24T08:03:40;101802.81;;;0.63;100.00
35435;BME280;21556;55.782;37.528;2023-01-24T08:06:06;101797.47;;;1.10;100.00
35435;BME280;21556;55.782;37.528;2023-01-24T08:08:32;101801.03;;;0.91;100.00
35435;BME280;21556;55.782;37.528;2023-01-24T08:10:58;101796.81;;;0.73;100.00
35435;BME280;21556;55.782;37.528;2023-01-24T08:13:24;101802.53;;;0.60;100.00
35435;BME280;21556;55.782;37.528;2023-01-24T08:15:50;101795.56;;;0.59;100.00
35435;BME280;21556;55.782;37.528;2023-01-24T08:18:16;101792.03;;;0.78;100.00
35435;BME280;21556;55.782;37.528;2023-01-24T08:20:43;101791.09;;;0.96;100.00
35435;BME280;21556;55.782;37.528;2023-01-24T08:23:09;101788.22;;;0.93;100.00
35435;BME280;21556;55.782;37.528;2023-01-24T08:25:34;101791.59;;;0.63;100.00
35435;BME280;21556;55.782;37.528;2023-01-24T08:28:00;101786.13;;;0.60;100.00
35435;BME280;21556;55.782;37.528;2023-01-24T08:30:26;101778.06;;;0.76;100.00
35435;BME280;21556;55.782;37.528;2023-01-24T08:33:03;101781.53;;;1.05;100.00
35435;BME280;21556;55.782;37.528;2023-01-24T08:35:30;101778.00;;;0.84;100.00
35435;BME280;21556;55.782;37.528;2023-01-24T08:37:56;101774.00;;;0.59;100.00
35435;BME280;21556;55.782;37.528;2023-01-24T08:40:22;101769.56;;;0.47;100.00
35435;BME280;21556;55.782;37.528;2023-01-24T08:42:48;101766.53;;;1.01;100.00
35435;BME280;21556;55.782;37.528;2023-01-24T08:45:14;101767.06;;;1.07;100.00
35435;BME280;21556;55.782;37.528;2023-01-24T08:47:40;101763.19;;;1.12;100.00
35435;BME280;21556;55.782;37.528;2023-01-24T08:50:07;101752.38;;;1.16;100.00
35435;BME280;21556;55.782;37.528;2023-01-24T08:52:33;101752.38;;;1.27;100.00
35435;BME280;21556;55.782;37.528;2023-01-24T08:54:58;101750.06;;;1.40;100.00
35435;BME280;21556;55.782;37.528;2023-01-24T08:57:24;101753.72;;;1.42;100.00
35435;BME280;21556;55.782;37.528;2023-01-24T08:59:51;101747.22;;;1.37;100.00
35435;BME280;21556;55.782;37.528;2023-01-24T09:02:17;101751.38;;;1.35;100.00
35435;BME280;21556;55.782;37.528;2023-01-24T09:04:43;101747.31;;;1.18;100.00
35435;BME280;21556;55.782;37.528;2023-01-24T09:07:13;101738.97;;;1.31;100.00
35435;BME280;21556;55.782;37.528;2023-01-24T09:09:39;101734.28;;;1.16;100.00
35435;BME280;21556;55.782;37.528;2023-01-24T09:12:05;101734.78;;;1.23;100.00
35435;BME280;21556;55.782;37.528;2023-01-24T09:14:31;101734.94;;;1.24;100.00
35435;BME280;21556;55.782;37.528;2023-01-24T09:16:59;101729.91;;;1.36;100.00
35435;BME280;21556;55.782;37.528;2023-01-24T09:19:25;101730.50;;;1.23;100.00
35435;BME280;21556;55.782;37.528;2023-01-24T09:21:52;101730.41;;;1.22;100.00
35435;BME280;21556;55.782;37.528;2023-01-24T09:24:22;101725.09;;;1.30;100.00
35435;BME280;21556;55.782;37.528;2023-01-24T09:26:49;101728.97;;;1.15;100.00
35435;BME280;21556;55.782;37.528;2023-01-24T09:29:17;101723.94;;;1.27;100.00
35435;BME280;21556;55.782;37.528;2023-01-24T09:31:43;101724.06;;;1.49;100.00
35435;BME280;21556;55.782;37.528;2023-01-24T09:34:09;101727.81;;;1.52;100.00
35435;BME280;21556;55.782;37.528;2023-01-24T09:36:35;101724.59;;;1.65;100.00
35435;BME280;21556;55.782;37.528;2023-01-24T09:39:01;101725.75;;;1.48;100.00
35435;BME280;21556;55.782;37.528;2023-01-24T09:47:20;101716.84;;;1.44;100.00
35435;BME280;21556;55.782;37.528;2023-01-24T09:50:03;101722.28;;;1.48;100.00
35435;BME280;21556;55.782;37.528;2023-01-24T09:52:39;101715.03;;;1.54;100.00
35435;BME280;21556;55.782;37.528;2023-01-24T09:55:40;101708.28;;;1.56;100.00
35435;BME280;21556;55.782;37.528;2023-01-24T09:58:10;101703.13;;;1.56;100.00
35435;BME280;21556;55.782;37.528;2023-01-24T10:00:45;101706.88;;;1.59;100.00
35435;BME280;21556;55.782;37.528;2023-01-24T10:03:22;101694.72;;;1.58;100.00
35435;BME280;21556;55.782;37.528;2023-01-24T10:05:52;101695.25;;;1.54;100.00
35435;BME280;21556;55.782;37.528;2023-01-24T10:08:45;101702.34;;;1.67;100.00
35435;BME280;21556;55.782;37.528;2023-01-24T10:16:43;101690.56;;;1.30;100.00
35435;BME280;21556;55.782;37.528;2023-01-24T10:25:28;101679.72;;;1.44;100.00
35435;BME280;21556;55.782;37.528;2023-01-24T10:27:58;101671.44;;;1.38;100.00
35435;BME280;21556;55.782;37.528;2023-01-24T10:30:43;101655.53;;;1.43;100.00
35435;BME280;21556;55.782;37.528;2023-01-24T10:33:16;101660.59;;;1.32;100.00
35435;BME280;21556;55.782;37.528;2023-01-24T10:35:59;101659.69;;;1.21;100.00
35435;BME280;21556;55.782;37.528;2023-01-24T10:38:26;101651.00;;;1.51;100.00
35435;BME280;21556;55.782;37.528;2023-01-24T10:41:04;101650.88;;;1.50;100.00
35435;BME280;21556;55.782;37.528;2023-01-24T10:43:37;101638.72;;;1.49;100.00
35435;BME280;21556;55.782;37.528;2023-01-24T10:49:16;101637.28;;;1.52;100.00
35435;BME280;21556;55.782;37.528;2023-01-24T10:52:13;101634.31;;;1.68;100.00
35435;BME280;21556;55.782;37.528;2023-01-24T10:57:36;101628.78;;;1.53;100.00
35435;BME280;21556;55.782;37.528;2023-01-24T11:02:41;101612.81;;;1.69;100.00
35435;BME280;21556;55.782;37.528;2023-01-24T11:05:12;101607.25;;;1.75;100.00
35435;BME280;21556;55.782;37.528;2023-01-24T11:07:45;101611.66;;;1.76;100.00
35435;BME280;21556;55.782;37.528;2023-01-24T11:10:21;101601.09;;;1.95;100.00
35435;BME280;21556;55.782;37.528;2023-01-24T11:12:54;101602.50;;;2.01;100.00
35435;BME280;21556;55.782;37.528;2023-01-24T11:15:28;101595.69;;;1.81;100.00
35435;BME280;21556;55.782;37.528;2023-01-24T11:18:19;101589.00;;;1.63;100.00
35435;BME280;21556;55.782;37.528;2023-01-24T11:20:46;101595.97;;;1.74;100.00
35435;BME280;21556;55.782;37.528;2023-01-24T11:23:29;101589.19;;;1.54;100.00
35435;BME280;21556;55.782;37.528;2023-01-24T11:25:58;101592.69;;;1.97;100.00
35435;BME280;21556;55.782;37.528;2023-01-24T11:28:29;101586.78;;;1.78;100.00
35435;BME280;21556;55.782;37.528;2023-01-24T11:30:59;101587.44;;;1.75;100.00
35435;BME280;21556;55.782;37.528;2023-01-24T11:33:38;101586.44;;;2.05;100.00
35435;BME280;21556;55.782;37.528;2023-01-24T11:36:29;101579.50;;;1.94;100.00
35435;BME280;21556;55.782;37.528;2023-01-24T11:39:02;101578.47;;;1.50;100.00
35435;BME280;21556;55.782;37.528;2023-01-24T11:41:41;101586.06;;;1.58;100.00
35435;BME280;21556;55.782;37.528;2023-01-24T12:01:09;101566.59;;;1.74;100.00
35435;BME280;21556;55.782;37.528;2023-01-24T12:06:48;101556.72;;;1.90;100.00
35435;BME280;21556;55.782;37.528;2023-01-24T12:09:22;101555.84;;;1.89;100.00
35435;BME280;21556;55.782;37.528;2023-01-24T12:14:47;101552.75;;;1.83;100.00
35435;BME280;21556;55.782;37.528;2023-01-24T12:17:37;101554.16;;;1.80;100.00
35435;BME280;21556;55.782;37.528;2023-01-24T12:20:13;101546.31;;;1.68;100.00
35435;BME280;21556;55.782;37.528;2023-01-24T12:22:45;101536.38;;;1.95;100.00
35435;BME280;21556;55.782;37.528;2023-01-24T12:25:20;101537.78;;;2.01;100.00
35435;BME280;21556;55.782;37.528;2023-01-24T12:27:50;101543.00;;;1.49;100.00
35435;BME280;21556;55.782;37.528;2023-01-24T12:35:51;101532.59;;;1.69;100.00
35435;BME280;21556;55.782;37.528;2023-01-24T12:39:10;101534.22;;;1.89;100.00
35435;BME280;21556;55.782;37.528;2023-01-24T12:41:34;101532.91;;;1.52;100.00
35435;BME280;21556;55.782;37.528;2023-01-24T12:49:38;101520.88;;;1.84;100.00
35435;BME280;21556;55.782;37.528;2023-01-24T12:52:23;101525.88;;;1.71;100.00
35435;BME280;21556;55.782;37.528;2023-01-24T12:58:01;101516.16;;;1.79;100.00
35435;BME280;21556;55.782;37.528;2023-01-24T13:03:45;101513.25;;;1.54;100.00
35435;BME280;21556;55.782;37.528;2023-01-24T13:06:39;101514.91;;;1.63;100.00
35435;BME280;21556;55.782;37.528;2023-01-24T13:11:54;101519.84;;;1.60;100.00
35435;BME280;21556;55.782;37.528;2023-01-24T13:14:45;101511.22;;;1.82;100.00
35435;BME280;21556;55.782;37.528;2023-01-24T13:34:03;101503.88;;;1.98;100.00
35435;BME280;21556;55.782;37.528;2023-01-24T13:36:35;101510.97;;;1.79;100.00
35435;BME280;21556;55.782;37.528;2023-01-24T13:39:04;101505.66;;;1.77;100.00
35435;BME280;21556;55.782;37.528;2023-01-24T13:43:58;101504.47;;;1.84;100.00
35435;BME280;21556;55.782;37.528;2023-01-24T13:51:48;101491.44;;;1.72;100.00
35435;BME280;21556;55.782;37.528;2023-01-24T13:54:35;101491.63;;;1.63;100.00
35435;BME280;21556;55.782;37.528;2023-01-24T13:57:36;101477.13;;;1.65;100.00
35435;BME280;21556;55.782;37.528;2023-01-24T14:08:03;101487.03;;;1.49;100.00
35435;BME280;21556;55.782;37.528;2023-01-24T14:13:55;101468.28;;;1.74;100.00
35435;BME280;21556;55.782;37.528;2023-01-24T14:18:59;101455.63;;;1.88;100.00
35435;BME280;21556;55.782;37.528;2023-01-24T14:21:34;101464.88;;;1.20;100.00
35435;BME280;21556;55.782;37.528;2023-01-24T14:24:24;101459.56;;;1.51;100.00
35435;BME280;21556;55.782;37.528;2023-01-24T14:26:56;101467.59;;;1.54;100.00
35435;BME280;21556;55.782;37.528;2023-01-24T14:29:36;101466.84;;;1.77;100.00
35435;BME280;21556;55.782;37.528;2023-01-24T14:32:18;101466.94;;;1.57;100.00
35435;BME280;21556;55.782;37.528;2023-01-24T14:34:59;101453.53;;;1.73;100.00
35435;BME280;21556;55.782;37.528;2023-01-24T14:37:30;101453.53;;;1.73;100.00
35435;BME280;21556;55.782;37.528;2023-01-24T14:40:14;101449.97;;;1.28;100.00
35435;BME280;21556;55.782;37.528;2023-01-24T14:42:47;101440.75;;;1.42;100.00
35435;BME280;21556;55.782;37.528;2023-01-24T14:45:16;101440.63;;;1.30;100.00
35435;BME280;21556;55.782;37.528;2023-01-24T14:47:48;101445.50;;;1.48;100.00
35435;BME280;21556;55.782;37.528;2023-01-24T14:52:55;101444.56;;;1.57;100.00
35435;BME280;21556;55.782;37.528;2023-01-24T14:55:36;101437.22;;;1.74;100.00
35435;BME280;21556;55.782;37.528;2023-01-24T15:00:39;101430.44;;;1.32;100.00
35435;BME280;21556;55.782;37.528;2023-01-24T15:03:06;101427.88;;;1.54;100.00
35435;BME280;21556;55.782;37.528;2023-01-24T15:05:34;101435.84;;;1.35;100.00